Latest Coastal Weather Observations for Marion Reef

IDQ60701

Issued at 3:55 pm EST Friday 1 August 2014 (issued every 10 minutes, with the page automatically refreshed every 10 minutes)

About coastal observations | Map of coastal stations | Coastal observations for QLD | Marine services | Other Formats
Station Details ID: 200704 Name: MARION REEF Lat: -19.10 Lon: 152.39 Height: 2.0 m
Data from the previous 72 hours. | See also: Recent months for locations in Queensland
Date/Time
EST
Temp

°C
Wind Pressure Rain
since 9am
mm
Weather Cloud Vis
km
Sea
Height
m
Swell
Dir
 
Speed
knots
Gust
knots
hPa Trend Height
m
Period
s
Dir
01/03:30pm 21.1 ENE 4 7 1015.8 - - - - - - - - -
01/03:00pm 20.9 W 4 10 1015.5 - - - - - - - - -
01/02:30pm 20.7 W 10 11 1015.7 - - - - - - - - -
01/02:00pm 20.8 W 11 11 1015.9 - - - - - - - - -
01/01:30pm 21.9 SW 12 14 1015.9 - - - - - - - - -
01/01:00pm 21.7 SW 12 13 1016.1 - - - - - - - - -
01/12:30pm 21.2 SW 10 12 1016.6 - - - - - - - - -
01/12:00pm 21.1 WSW 8 11 1016.8 - - - - - - - - -
01/11:30am 21.1 NW 11 16 1017.3 - - - - - - - - -
01/11:00am 21.8 N 12 11 1017.4 - - - - - - - - -
01/10:30am 22.1 W 8 10 1017.5 - - - - - - - - -
01/10:00am 22.1 W 7 10 1017.6 - - - - - - - - -
01/09:30am 22.0 WSW 5 7 1017.8 - - - - - - - - -
01/09:00am 21.6 W 6 8 1017.8 - - - - - - - - -
01/08:30am 21.8 SW 8 9 1017.7 - - - - - - - - -
01/08:00am 21.8 SSW 6 7 1017.4 - - - - - - - - -
01/07:30am 21.3 WSW 8 9 1017.4 - - - - - - - - -
01/07:00am 21.3 WSW 7 8 1017.1 - - - - - - - - -
01/06:30am 21.1 WSW 8 9 1016.9 - - - - - - - - -
01/06:00am 21.3 W 9 11 1016.7 - - - - - - - - -
01/05:30am 21.4 WNW 6 8 1016.4 - - - - - - - - -
01/05:00am 21.1 ESE 1 6 1016.2 - - - - - - - - -
01/04:30am 20.7 W 2 7 1016.4 - - - - - - - - -
01/04:00am 21.0 W 7 8 1016.1 - - - - - - - - -
01/03:30am 21.0 N 3 9 1016.3 - - - - - - - - -
01/03:00am 20.8 NW 11 11 1016.3 - - - - - - - - -
01/02:30am 21.0 NNE 2 8 1016.9 - - - - - - - - -
01/02:00am 21.6 NNW 13 19 1016.9 - - - - - - - - -
01/01:30am 23.1 E 11 15 1017.0 - - - - - - - - -
01/01:00am 22.6 E 12 17 1017.2 - - - - - - - - -
01/12:30am 23.4 E 13 15 1017.5 - - - - - - - - -
01/12:00am 23.0 ENE 12 15 1017.4 - - - - - - - - -
 
Date/Time
EST
Temp

°C
Wind Pressure Rain
since 9am
mm
Weather Cloud Vis
km
Sea
Height
m
Swell
Dir
 
Speed
knots
Gust
knots
hPa Trend Height
m
Period
s
Dir
31/11:30pm 21.3 NE 4 10 1017.7 - - - - - - - - -
31/11:00pm 21.2 SE 5 8 1017.8 - - - - - - - - -
31/10:30pm 21.5 S 4 6 1017.9 - - - - - - - - -
31/10:00pm 21.1 S 7 8 1017.9 - - - - - - - - -
31/09:30pm 21.0 WSW 3 7 1018.1 - - - - - - - - -
31/09:00pm 20.9 N 2 6 1018.1 - - - - - - - - -
31/08:30pm 20.9 S 5 7 1018.1 - - - - - - - - -
31/08:00pm 20.6 SSW 6 9 1017.9 - - - - - - - - -
31/07:30pm 20.5 WSW 10 11 1017.8 - - - - - - - - -
31/07:00pm 20.7 SW 9 11 1017.7 - - - - - - - - -
31/06:30pm 20.5 SSW 9 11 1017.3 - - - - - - - - -
31/06:00pm 20.9 SSE 8 11 1017.0 - - - - - - - - -
31/05:30pm 21.3 S 9 12 1017.0 - - - - - - - - -
31/05:00pm 20.4 S 10 11 1016.7 - - - - - - - - -
31/04:30pm 20.4 ESE 1 7 1016.9 - - - - - - - - -
31/04:00pm 20.2 S 6 9 1016.6 - - - - - - - - -
31/03:30pm 19.8 S 7 9 1016.7 - - - - - - - - -
31/03:00pm 20.2 S 10 11 1016.5 - - - - - - - - -
31/02:30pm 21.1 N 2 6 1016.4 - - - - - - - - -
31/02:00pm 21.6 CALM 0 0 1016.7 - - - - - - - - -
31/01:30pm 21.7 S 6 10 1017.0 - - - - - - - - -
31/01:00pm 21.7 SW 9 11 1017.0 - - - - - - - - -
31/12:30pm 21.9 W 2 7 1017.5 - - - - - - - - -
31/12:00pm 21.6 CALM 0 0 1017.9 - - - - - - - - -
31/11:30am 20.8 N 8 10 1018.5 - - - - - - - - -
31/11:00am 21.3 NNE 15 19 1018.8 - - - - - - - - -
31/10:30am 21.8 ENE 12 17 1019.2 - - - - - - - - -
31/10:04am 22.2 ENE 15 16 1019.4 - - - - - - - - -
31/10:00am 22.2 ENE 15 5 1019.3 - - - - - - - - -
31/09:30am 22.8 ENE 11 13 1019.5 - - - - - - - - -
31/09:00am 22.9 E 12 14 1019.3 - - - - - - - - -
31/08:30am 22.8 E 15 17 1019.4 - - - - - - - - -
31/08:00am 23.0 E 15 18 1019.0 - - - - - - - - -
31/07:30am 22.9 E 15 18 1018.6 - - - - - - - - -
31/07:00am 23.0 E 12 15 1018.5 - - - - - - - - -
31/06:30am 22.7 E 13 15 1018.4 - - - - - - - - -
31/06:00am 22.7 E 13 15 1018.1 - - - - - - - - -
31/05:30am 22.6 E 16 18 1017.8 - - - - - - - - -
31/05:00am 22.5 E 16 19 1017.6 - - - - - - - - -
31/04:30am 22.7 E 17 19 1017.4 - - - - - - - - -
31/04:00am 22.7 ESE 15 18 1017.6 - - - - - - - - -
31/03:30am 23.0 E 13 18 1017.6 - - - - - - - - -
31/03:00am 22.6 ESE 15 17 1017.6 - - - - - - - - -
31/02:30am 22.9 E 16 18 1018.0 - - - - - - - - -
31/02:00am 22.7 E 18 20 1018.1 - - - - - - - - -
31/01:30am 22.9 E 18 20 1018.3 - - - - - - - - -
31/01:00am 23.0 E 19 22 1018.4 - - - - - - - - -
31/12:30am 22.9 E 21 24 1018.7 - - - - - - - - -
31/12:00am 23.1 ESE 19 22 1018.6 - - - - - - - - -
 
Date/Time
EST
Temp

°C
Wind Pressure Rain
since 9am
mm
Weather Cloud Vis
km
Sea
Height
m
Swell
Dir
 
Speed
knots
Gust
knots
hPa Trend Height
m
Period
s
Dir
30/11:30pm 23.1 ESE 17 20 1019.1 - - - - - - - - -
30/11:00pm 23.0 ESE 13 16 1019.3 - - - - - - - - -
30/10:30pm 23.0 E 13 15 1019.5 - - - - - - - - -
30/10:00pm 22.8 E 17 21 1019.6 - - - - - - - - -
30/09:30pm 23.1 E 15 17 1019.7 - - - - - - - - -
30/09:00pm 23.1 E 15 17 1019.4 - - - - - - - - -
30/08:30pm 23.0 E 16 19 1019.3 - - - - - - - - -
30/08:00pm 23.1 E 15 19 1019.0 - - - - - - - - -
30/07:30pm 23.3 E 13 16 1018.8 - - - - - - - - -
30/07:00pm 23.2 E 14 16 1018.5 - - - - - - - - -
30/06:30pm 23.0 E 14 16 1018.3 - - - - - - - - -
30/06:00pm 23.0 E 12 14 1018.0 - - - - - - - - -
30/05:30pm 23.1 E 12 14 1018.0 - - - - - - - - -
30/05:00pm 23.1 E 12 15 1017.8 - - - - - - - - -
30/04:30pm 23.2 ESE 13 16 1017.8 - - - - - - - - -
30/04:00pm 23.3 ESE 13 15 1017.5 - - - - - - - - -
30/03:30pm 23.2 ESE 9 10 1017.5 - - - - - - - - -
30/03:00pm 23.1 E 10 13 1017.3 - - - - - - - - -
30/02:30pm 23.1 ESE 14 16 1017.7 - - - - - - - - -
30/02:00pm 23.3 E 13 14 1017.9 - - - - - - - - -
30/01:30pm 23.2 E 14 16 1018.7 - - - - - - - - -
30/01:00pm 23.1 E 13 16 1018.7 - - - - - - - - -
30/12:30pm 23.2 E 14 17 1019.4 - - - - - - - - -
30/12:00pm 23.7 E 12 16 1019.4 - - - - - - - - -
30/11:30am 23.7 ESE 12 15 1020.2 - - - - - - - - -
30/11:00am 23.7 ESE 10 11 1020.4 - - - - - - - - -
30/10:30am 23.6 ESE 12 14 1021.0 - - - - - - - - -
30/10:00am 23.7 E 15 16 1021.2 - - - - - - - - -
30/09:30am 23.5 ESE 17 19 1021.6 - - - - - - - - -
30/09:00am 23.5 E 16 20 1021.5 - - - - - - - - -
30/08:30am 23.4 E 15 18 1021.6 - - - - - - - - -
30/08:00am 23.1 E 12 16 1021.3 - - - - - - - - -
30/07:30am 23.1 ENE 15 17 1020.8 - - - - - - - - -
30/07:00am 23.0 E 13 16 1020.4 - - - - - - - - -
30/06:30am 23.2 E 10 12 1020.1 - - - - - - - - -
30/06:00am 23.2 ESE 10 13 1019.8 - - - - - - - - -
30/05:00am 23.2 E 13 15 1019.2 - - - - - - - - -
30/04:30am 22.7 ESE 13 16 1019.2 - - - - - - - - -
30/04:00am 22.8 ESE 12 15 1018.8 - - - - - - - - -
30/03:30am 22.5 ESE 11 15 1019.1 - - - - - - - - -
30/03:00am 22.4 E 15 18 1019.0 - - - - - - - - -
30/02:30am 22.6 ESE 13 18 1019.3 - - - - - - - - -
30/02:00am 22.8 ESE 13 15 1019.3 - - - - - - - - -
30/01:30am 22.5 SE 12 15 1019.8 - - - - - - - - -
30/01:00am 22.6 ESE 13 15 1020.0 - - - - - - - - -
30/12:30am 23.0 E 11 13 1020.2 - - - - - - - - -
30/12:00am 22.8 E 13 17 1020.4 - - - - - - - - -
 
Date/Time
EST
Temp

°C
Wind Pressure Rain
since 9am
mm
Weather Cloud Vis
km
Sea
Height
m
Swell
Dir
 
Speed
knots
Gust
knots
hPa Trend Height
m
Period
s
Dir
29/11:30pm 22.8 E 14 16 1020.4 - - - - - - - - -
29/11:00pm 22.8 ESE 14 17 1020.4 - - - - - - - - -
29/10:30pm 23.0 ESE 11 14 1020.6 - - - - - - - - -
29/10:00pm 23.0 E 13 16 1020.5 - - - - - - - - -
29/09:30pm 23.0 ESE 15 18 1020.4 - - - - - - - - -
29/09:00pm 22.8 ESE 15 18 1020.1 - - - - - - - - -
29/08:30pm 22.8 ESE 16 20 1020.1 - - - - - - - - -
29/08:00pm 22.9 ESE 17 20 1020.0 - - - - - - - - -
29/07:30pm 23.0 ESE 16 19 1019.9 - - - - - - - - -
29/07:00pm 23.0 ESE 17 19 1019.6 - - - - - - - - -
29/06:30pm 23.1 SE 15 19 1019.5 - - - - - - - - -
29/06:00pm 22.9 SE 17 20 1019.0 - - - - - - - - -
29/05:30pm 23.1 ESE 16 19 1018.9 - - - - - - - - -
29/05:00pm 23.1 SE 15 17 1018.8 - - - - - - - - -
29/04:30pm 23.0 SE 14 17 1018.7 - - - - - - - - -
29/04:00pm 23.0 SE 14 16 1018.5 - - - - - - - - -

Other Formats:

Comma delimited format used in spreadsheet applications
http://www.bom.gov.au/fwo/IDQ60701/IDQ60701.94298.axf

JavaScript Object Notation format (JSON) in row-major order
http://www.bom.gov.au/fwo/IDQ60701/IDQ60701.94298.json